Terminal Aerodrome Forecast
Issued by NWS Duluth, MN

Home | Current Version | Previous Version | Text Only | Print | Product List | Glossary On
Versions: 1 2 3 4 5 6 7 8 9 10 11 12 13 14 15 16 17 18 19 20
000
FTUS43 KDLH 181000 AAA
TAFINL
TAF AMD
KINL 181021Z 1810/1906 36007KT P6SM OVC015
     FM181700 VRB02KT P6SM SCT030
     FM190000 18005KT P6SM SKC=

USA.gov is the U.S. government's official web portal to all federal, state and local government web resources and services.